Forum destinado para auxiliar o blog www.dicasdevoo.blogspot.com
 
InícioCalendárioFAQBuscarMembrosGruposRegistrar-seConectar-se

Compartilhe | 
 

 TAF (ivao)

Ir em baixo 
AutorMensagem
Joao Paulo
Admin
avatar

Mensagens : 72
Pontos : 138
Data de inscrição : 28/04/2010
Idade : 24
Localização : Fortaleza

MensagemAssunto: TAF (ivao)   28/4/2010, 20:57

Olá pessoal venho aqui por meio desta trazer mais um belo tutorial feito pela IVAO dessa vez ele fala sobre o TAF é uma descrição completa da meteorogia previstas para ocorrerem em um aeródromo durante todo o pediodo de previsão.
Então vamos comerçar.

1. INTRODUÇÃO

Esse manual tem como objetivo divulgar, de forma direta, as informações e forma
de interpretação do código Meteorológico TAF.
1.1. Definição

TAF é uma descrição completa das condições meteorológicas previstas para
ocorrerem em um aeródromo durante todo o período de previsão, incluindo qualquer
mudança considerada significativa para as operações aéreas. Sua validade terá inicio às
0000, 0600, 1200 e 1800 UTC tendo duração de 12 e 24 horas e sua renovação será feita
a cada 6 horas.
Quando o TAF necessitar de emendas, a correção será indicada pela colocação
da abreviatura AMD após a sigla TAF e esta nova mensagem cobrirá o período restante
de validade do TAF original.

2. CÓDIGOS TAF:
A parte inicial do código TAF contém, basicamente, as mesmas informações de
um código METAR na seqüência:
a) grupos de identificação;
b) vento à superfície;
c) visibilidade;
d) tempo significativo previsto;
e) nuvens (ou visibilidade vertical, se for o caso);
f) mudanças significativas esperadas e
g) temperaturas previstas.

2.1. Grupo Identificador :
Análogo ao METAR, com pequenas alterações;

TAF SBPA 130530Z 131212 31015G27KT 8000 SHRA FEW005 FEW010CB
SCT018 BKN025 TX28/18Z TN20/09Z

TAF – Identificador do tipo de Mensagem (TAF, METAR, SPECI);
SBPA – Indicador da localidade;
130630z – Dia e horário da previsão, em horas e minutos UTC;
131212 – Dia e período da validade do TAF – Válido do dia 13 das 1200z até dia
14 as 1200z;

2.2. Ventos à Superfície:
Análogo ao código METAR, com as mesmas variações e possibilidades.

TAF SBPA 130530Z 131212 31015G27KT 8000 SHRA FEW005 FEW010CB
SCT018 BKN025 TX28/18Z TN20/09Z

31015G27KT – Vento 310 graus, 15 nós com rajadas de 27 nós.
2.3. Visibilidade:
Análogo ao código METAR, com as mesmas variações e possibilidades.

TAF SBPA 130530Z 131212 31015G27KT 8000 SHRA FEW005 FEW010CB
SCT018 BKN025 TX28/18Z TN20/09Z

8000 – Visibilidade horizontal de 8000 metros.
2.4. Fenômenos Climáticos Significativos:

Análogo ao código METAR, com as mesmas variações e possibilidades.

TAF SBPA 130530Z 131212 31015G27KT 8000 SHRA FEW005 FEW010CB
SCT018 BKN025 TX28/18Z TN20/09Z

SHRA – Pancadas de Chuva.
2.5. Nuvens:
Análogo ao código METAR, com as mesmas variações e possibilidades.


TAF SBPA 130530Z 131212 31015G27KT 8000 SHRA FEW005 FEW010CB
SCT018 BKN025 TX28/18Z TN20/09Z


FEW005 – Poucas nuvens a 500 pés.
FEW010CB – Poucas nuvens a 1000 pés Cumulunimbus.
SCT018 – Nuvens Esparsas a 1800 pés.
BKN025 – Nublada a 2500 pés.

2.6. Temperaturas Previstas :
Dentro do período de validade do TAF serão previstas as temperaturas máxima e
mínima seguidas de suas respectivas horas UTC:
TAF SBPA 130530Z 131212 31015G27KT 8000 SHRA FEW005 FEW010CB
SCT018 BKN025 TX28/18Z TN20/09Z

TX28/18Z – Temperatura máxima de 18°C às 1800z
TN20/09Z – Temperatura mínima de 20°C às 0900z

3. GRUPOS DE MUDANÇAS SIGNIFICATIVAS:

3.1. Grupo FM
Quando forem esperadas alterações meteorológicas significativas no conjunto de
condições prevalecente o grupo FM (from - a partir de) deverá ser utilizado. Todas as
condições dadas antes do grupo FM serão substituídas pelas novas condições previstas.

TAF SBPA 130530Z 131212 31015G27KT 8000 SHRA FEW005 FEW010CB
SCT018 BKN025 FM1800 27017KT 4000 +SHRA BKN025 TX28/18Z
TN20/09Z

A partir das 1800z haverá mudança de vento para 270° 17 nós, visibilidade
horizontal de 4000 metros, presença de pancadas fortes de chuva e céu nublado a 2500
pés.
3.2. Grupo BECMG:
Os grupos BECMG indicam uma mudança regular ou irregular para as condições
previstas num momento qualquer dentro do período. Este período normalmente não
excederá de duas horas.

Este grupo será seguido por grupos que descreverão somente os elementos que
são previstos para mudar significativamente. Entretanto, no caso da nebulosidade, todos
os grupos deverão ser informados.
A não ser que outros grupos sejam usados, as condições dadas após BECMG
deverão prevalecer a partir do inicio do grupo até o fim do período.

TAF SBPA 130530Z 131212 31015G27KT 8000 SHRA BKN025 BECMG
0002 4000 BKN010 TX28/18Z TN20/09Z

Está previsto para o período das 0000z às 0200z – Vento 310 graus, 15 nós com
rajadas de 27 nós, visibilidade de 4000 metros e céu nublado a 1000 pés.
3.3. Grupo TEMPO:
O Grupo Tempo indica que flutuações temporárias podem ocorrer a qualquer
momento no período estipulado. São esperadas que tais mudanças dures menos de uma
hora cada uma que a soma de todas elas durem, no máximo, metade do tempo
determinado no Grupo Tempo1
.

TAF SBCT 101030Z 101212 24003KT 9999 SCT015 TEMPO 1824 4000
+SHRA BKN012 TX28/18Z TN20/09Z

São previstas ocorrência temporária de visibilidade horizontal de 4000 metros,
pancadas fortes de chuva e aumento de nebulosidade com redução de altura para 1200
pés entre o período de 1800z e 2400z.

3.4. Grupo PROB:
Quando a confiança nos valores da previsão não for suficiente, mas o elemento
previsto for considerado significativo para as operações, os grupos PROB será usado.
O Grupo PROB será utilizado, sempre, com os valores de 30% ou 40% seguido do
horário da previsão ou de um novo Grupo de Mudança.

TAF SBPA 101030Z 101212 27003KT 3000 BR SCT008 BECMG 0002
1500 BR BKN004 PROB30 0406 0800 FG TX28/18Z TN20/09Z

Está previsto entre as 0000z e as 0200z uma redução de visibilidade horizontal
para 1500 metros, com presença de névoa úmida e céu nublado a 400 pés, com
probabilidade de 40% de entre as 0400z e as 0600z haver redução para 800 metros de
visibilidade horizontal com presença de nevoeiro.


4. CONSIDERAÇÕES FINAIS:
Para um melhor aproveitamento das informações desse manual, faz-se necessária
a leitura do manual de METAR e SPECI disponibilizados, também, na seção de
treinamentos da IVAO-BR.




É como eu disse antes no comerço pode ser um pouco dificil memorizar varias coisas, mas com a pratica vai aprendendo aos poucos ate dar-se conta de ter aprendido tudo ou quase tudo sobre TAF no proximo topico eu vou postar sobre o METAR que é bem mais conhecido pelos simulators. Abraço pessoal ate a proxima!

_________________
Voltar ao Topo Ir em baixo
Ver perfil do usuário http://www.dicasdevoo.blogspot.com
Carvalho

avatar

Mensagens : 8
Pontos : 12
Data de inscrição : 28/04/2010
Idade : 45
Localização : São Paulo

MensagemAssunto: Re: TAF (ivao)   29/4/2010, 01:22

Muito bom João Paulo, e obrigado por enriquecer o Fórum com esse magnífico tutorial.
Voltar ao Topo Ir em baixo
Ver perfil do usuário
 
TAF (ivao)
Voltar ao Topo 
Página 1 de 1

Permissão deste fórum:Você não pode responder aos tópicos neste fórum
 :: Area para pilotos :: Treinamentos para pilotos-
Ir para: